Time;durP1;ratioP1;P1;durP2;ratioP2;P2;SDS_P1;SDS_P2;PMS_P1;PMS_P2;Temp;Humidity;BMP_temperature;BMP_pressure;BME280_temperature;BME280_humidity;BME280_pressure;Samples;Min_cycle;Max_cycle;Signal;HPM_P1;HPM_P2
2022/10/14 00:00:39;;;;;;;;;;;22.60;45.60;;;;;;491712;240;1117;-53
2022/10/14 00:02:40;;;;;;;;;;;22.60;45.70;;;;;;492009;240;1213;-53
2022/10/14 00:04:42;;;;;;;;;;;22.60;45.70;;;;;;492112;240;1073;-53
2022/10/14 00:06:43;;;;;;;;;;;22.60;45.70;;;;;;491838;240;1089;-52
2022/10/14 00:08:46;;;;;;;;;;;22.60;45.70;;;;;;491898;240;1027;-54
2022/10/14 00:10:46;;;;;;;;;;;22.60;45.70;;;;;;491735;240;1384;-53
2022/10/14 00:12:49;;;;;;;;;;;22.60;45.70;;;;;;491732;240;1192;-53
2022/10/14 00:14:48;;;;;;;;;;;22.60;45.70;;;;;;491674;240;2081;-53
2022/10/14 00:16:50;;;;;;;;;;;22.60;45.70;;;;;;491670;240;1092;-53
2022/10/14 00:18:51;;;;;;;;;;;22.50;45.70;;;;;;491691;240;1173;-53
2022/10/14 00:20:52;;;;;;;;;;;22.50;45.80;;;;;;491809;240;1269;-53
2022/10/14 00:22:54;;;;;;;;;;;22.50;45.80;;;;;;491681;240;1199;-53
2022/10/14 00:24:55;;;;;;;;;;;22.60;45.90;;;;;;492038;240;1332;-53
2022/10/14 00:26:56;;;;;;;;;;;22.50;45.90;;;;;;491791;240;1199;-52
2022/10/14 00:28:58;;;;;;;;;;;22.60;45.90;;;;;;491856;240;1063;-52
2022/10/14 00:30:59;;;;;;;;;;;22.60;45.90;;;;;;492154;240;1099;-53
2022/10/14 00:33:00;;;;;;;;;;;22.60;45.90;;;;;;492162;240;1260;-53
2022/10/14 00:35:02;;;;;;;;;;;22.60;45.90;;;;;;491771;240;1204;-53
2022/10/14 00:37:03;;;;;;;;;;;22.60;46.00;;;;;;491637;240;2184;-53
2022/10/14 00:39:05;;;;;;;;;;;22.50;45.90;;;;;;491637;240;1274;-53
2022/10/14 00:41:06;;;;;;;;;;;22.50;45.90;;;;;;492076;240;1260;-53
2022/10/14 00:43:07;;;;;;;;;;;22.60;46.00;;;;;;491669;240;1310;-53
2022/10/14 00:45:09;;;;;;;;;;;22.60;46.00;;;;;;491937;240;1267;-53
2022/10/14 00:47:10;;;;;;;;;;;22.60;46.00;;;;;;491841;240;1499;-53
2022/10/14 00:49:11;;;;;;;;;;;22.60;46.00;;;;;;491643;240;1216;-53
2022/10/14 00:51:12;;;;;;;;;;;22.50;46.00;;;;;;491606;240;1229;-53
2022/10/14 00:53:14;;;;;;;;;;;22.60;46.10;;;;;;491669;240;1202;-53
2022/10/14 00:55:15;;;;;;;;;;;22.60;46.10;;;;;;492105;240;1516;-53
2022/10/14 00:57:17;;;;;;;;;;;22.50;46.00;;;;;;491931;240;2187;-53
2022/10/14 00:59:18;;;;;;;;;;;22.50;46.00;;;;;;492012;240;1156;-53
2022/10/14 01:01:19;;;;;;;;;;;22.60;46.10;;;;;;491710;240;1140;-53
2022/10/14 01:03:20;;;;;;;;;;;22.50;46.00;;;;;;492029;240;1304;-53
2022/10/14 01:05:22;;;;;;;;;;;22.50;46.10;;;;;;491659;240;1325;-53
2022/10/14 01:07:23;;;;;;;;;;;22.50;46.10;;;;;;492134;240;1243;-53
2022/10/14 01:09:24;;;;;;;;;;;22.50;46.00;;;;;;491900;240;1242;-53
2022/10/14 01:11:26;;;;;;;;;;;22.50;46.10;;;;;;491817;240;1172;-52
2022/10/14 01:13:27;;;;;;;;;;;22.50;46.10;;;;;;491685;240;1223;-53
2022/10/14 01:15:28;;;;;;;;;;;22.60;46.10;;;;;;491767;240;1295;-53
2022/10/14 01:17:30;;;;;;;;;;;22.50;46.10;;;;;;491682;240;2168;-53
2022/10/14 01:19:31;;;;;;;;;;;22.50;46.10;;;;;;492005;240;1243;-53
2022/10/14 01:21:32;;;;;;;;;;;22.50;46.20;;;;;;491642;240;1226;-53
2022/10/14 01:23:34;;;;;;;;;;;22.50;46.20;;;;;;491730;240;1236;-53
2022/10/14 01:25:35;;;;;;;;;;;22.50;46.20;;;;;;491647;240;1190;-53
2022/10/14 01:27:36;;;;;;;;;;;22.50;46.20;;;;;;491708;240;1445;-53
2022/10/14 01:29:38;;;;;;;;;;;22.50;46.20;;;;;;491698;240;1197;-52
2022/10/14 01:31:39;;;;;;;;;;;22.50;46.20;;;;;;491678;240;1388;-53
2022/10/14 01:33:40;;;;;;;;;;;22.50;46.20;;;;;;491799;240;1857;-53
2022/10/14 01:35:42;;;;;;;;;;;22.50;46.20;;;;;;491655;240;1239;-53
2022/10/14 01:37:43;;;;;;;;;;;22.50;46.20;;;;;;491680;240;2188;-52
2022/10/14 01:39:44;;;;;;;;;;;22.50;46.30;;;;;;491661;240;1253;-53
2022/10/14 01:41:46;;;;;;;;;;;22.50;46.30;;;;;;491811;240;1082;-53
2022/10/14 01:43:47;;;;;;;;;;;22.50;46.30;;;;;;491684;240;1536;-53
2022/10/14 01:45:48;;;;;;;;;;;22.50;46.30;;;;;;491699;240;1288;-53
2022/10/14 01:47:50;;;;;;;;;;;22.50;46.30;;;;;;492173;240;1151;-53
2022/10/14 01:49:51;;;;;;;;;;;22.50;46.30;;;;;;492141;240;1328;-53
2022/10/14 01:51:52;;;;;;;;;;;22.50;46.30;;;;;;492138;240;1096;-52
2022/10/14 01:53:54;;;;;;;;;;;22.50;46.30;;;;;;491728;240;1195;-53
2022/10/14 01:55:55;;;;;;;;;;;22.50;46.30;;;;;;491971;240;1225;-53
2022/10/14 01:57:56;;;;;;;;;;;22.50;46.40;;;;;;491945;240;2199;-53
2022/10/14 01:59:58;;;;;;;;;;;22.50;46.30;;;;;;492139;240;1214;-52
2022/10/14 02:01:59;;;;;;;;;;;22.50;46.40;;;;;;491706;240;1235;-53
2022/10/14 02:04:00;;;;;;;;;;;22.40;46.40;;;;;;491674;240;1215;-53
2022/10/14 02:06:02;;;;;;;;;;;22.50;46.50;;;;;;491654;240;1224;-52
2022/10/14 02:08:03;;;;;;;;;;;22.40;46.40;;;;;;491688;240;1249;-53
2022/10/14 02:10:04;;;;;;;;;;;22.50;46.50;;;;;;491687;240;1179;-53
2022/10/14 02:12:05;;;;;;;;;;;22.50;46.50;;;;;;491678;240;1317;-53
2022/10/14 02:14:07;;;;;;;;;;;22.50;46.50;;;;;;491684;240;1166;-53
2022/10/14 02:16:08;;;;;;;;;;;22.50;46.40;;;;;;491750;240;1306;-53
2022/10/14 02:18:09;;;;;;;;;;;22.50;46.50;;;;;;492128;240;2195;-53
2022/10/14 02:20:11;;;;;;;;;;;22.50;46.50;;;;;;491623;240;1172;-53
2022/10/14 02:22:12;;;;;;;;;;;22.50;46.50;;;;;;491696;240;1162;-53
2022/10/14 02:24:14;;;;;;;;;;;22.50;46.50;;;;;;491983;240;1198;-53
2022/10/14 02:26:15;;;;;;;;;;;22.50;46.50;;;;;;491604;240;1197;-53
2022/10/14 02:28:16;;;;;;;;;;;22.50;46.50;;;;;;491708;240;1230;-53
2022/10/14 02:30:17;;;;;;;;;;;22.50;46.50;;;;;;491746;240;1521;-53
2022/10/14 02:32:19;;;;;;;;;;;22.50;46.50;;;;;;491643;240;1222;-53
2022/10/14 02:34:20;;;;;;;;;;;22.50;46.50;;;;;;491696;240;1282;-53
2022/10/14 02:36:21;;;;;;;;;;;22.50;46.50;;;;;;491605;240;1340;-53
2022/10/14 02:38:23;;;;;;;;;;;22.50;46.50;;;;;;491724;240;2149;-52
2022/10/14 02:40:24;;;;;;;;;;;22.50;46.50;;;;;;491615;240;1323;-53
2022/10/14 02:42:26;;;;;;;;;;;22.50;46.60;;;;;;491679;240;1216;-53
2022/10/14 02:44:28;;;;;;;;;;;22.50;46.60;;;;;;491733;240;1198;-52
2022/10/14 02:46:29;;;;;;;;;;;22.50;46.60;;;;;;492083;240;1307;-53
2022/10/14 02:48:30;;;;;;;;;;;22.50;46.60;;;;;;491949;240;1284;-53
2022/10/14 02:50:32;;;;;;;;;;;22.50;46.60;;;;;;491641;240;1241;-53
2022/10/14 02:52:33;;;;;;;;;;;22.50;46.60;;;;;;491645;240;1271;-53
2022/10/14 02:54:34;;;;;;;;;;;22.50;46.60;;;;;;491688;240;1221;-53
2022/10/14 02:56:35;;;;;;;;;;;22.50;46.60;;;;;;492121;240;1378;-53
2022/10/14 02:58:37;;;;;;;;;;;22.40;46.60;;;;;;491949;240;2199;-52
2022/10/14 03:00:38;;;;;;;;;;;22.50;46.60;;;;;;492032;240;1274;-53
2022/10/14 03:02:39;;;;;;;;;;;22.50;46.60;;;;;;491939;240;1228;-53
2022/10/14 03:04:41;;;;;;;;;;;22.50;46.60;;;;;;492043;240;1259;-53
2022/10/14 03:06:42;;;;;;;;;;;22.50;46.50;;;;;;492110;240;1164;-53
2022/10/14 03:08:43;;;;;;;;;;;22.50;46.60;;;;;;491664;240;1309;-53
2022/10/14 03:10:45;;;;;;;;;;;22.50;46.70;;;;;;492028;240;1288;-53
2022/10/14 03:12:46;;;;;;;;;;;22.40;46.70;;;;;;491676;240;1220;-53
2022/10/14 03:14:47;;;;;;;;;;;22.40;46.80;;;;;;491670;240;1373;-53
2022/10/14 03:16:49;;;;;;;;;;;22.40;46.80;;;;;;491786;240;1161;-53
2022/10/14 03:18:50;;;;;;;;;;;22.40;46.80;;;;;;491608;240;2183;-52
2022/10/14 03:20:51;;;;;;;;;;;22.40;46.80;;;;;;492070;240;1240;-53
2022/10/14 03:22:53;;;;;;;;;;;22.50;46.80;;;;;;491660;240;1302;-52
2022/10/14 03:24:54;;;;;;;;;;;22.50;46.70;;;;;;492113;240;1157;-53
2022/10/14 03:26:55;;;;;;;;;;;22.50;46.80;;;;;;491988;240;1269;-52
2022/10/14 03:28:57;;;;;;;;;;;22.50;46.70;;;;;;491641;240;1816;-53
2022/10/14 03:30:58;;;;;;;;;;;22.50;46.70;;;;;;491826;240;1188;-53
2022/10/14 03:32:59;;;;;;;;;;;22.50;46.80;;;;;;491645;240;1143;-53
2022/10/14 03:35:01;;;;;;;;;;;22.50;46.70;;;;;;491669;240;1281;-53
2022/10/14 03:37:02;;;;;;;;;;;22.50;46.80;;;;;;491721;240;1168;-53
2022/10/14 03:39:03;;;;;;;;;;;22.40;46.80;;;;;;492075;240;2188;-53
2022/10/14 03:41:05;;;;;;;;;;;22.40;46.80;;;;;;491819;240;1239;-53
2022/10/14 03:43:06;;;;;;;;;;;22.40;46.80;;;;;;492137;240;1237;-53
2022/10/14 03:45:08;;;;;;;;;;;22.50;46.80;;;;;;491646;240;1219;-53
2022/10/14 03:47:09;;;;;;;;;;;22.40;46.80;;;;;;492112;240;1204;-52
2022/10/14 03:49:10;;;;;;;;;;;22.40;46.80;;;;;;491670;240;1182;-53
2022/10/14 03:51:12;;;;;;;;;;;22.50;46.80;;;;;;492100;240;1393;-53
2022/10/14 03:53:13;;;;;;;;;;;22.40;46.80;;;;;;492122;240;1527;-53
2022/10/14 03:55:14;;;;;;;;;;;22.40;46.80;;;;;;491706;240;1415;-53
2022/10/14 03:57:15;;;;;;;;;;;22.40;46.80;;;;;;491890;240;1271;-53
2022/10/14 03:59:17;;;;;;;;;;;22.40;46.80;;;;;;491689;240;2188;-53
2022/10/14 04:01:18;;;;;;;;;;;22.50;46.80;;;;;;491874;240;1187;-53
2022/10/14 04:03:19;;;;;;;;;;;22.50;46.80;;;;;;492109;240;1246;-52
2022/10/14 04:05:21;;;;;;;;;;;22.40;46.80;;;;;;491639;240;1329;-53
2022/10/14 04:07:22;;;;;;;;;;;22.50;46.80;;;;;;491871;240;1322;-53
2022/10/14 04:09:24;;;;;;;;;;;22.40;46.80;;;;;;491623;240;1535;-53
2022/10/14 04:11:25;;;;;;;;;;;22.40;46.80;;;;;;492095;240;1182;-53
2022/10/14 04:13:26;;;;;;;;;;;22.50;46.80;;;;;;491637;240;1221;-53
2022/10/14 04:15:27;;;;;;;;;;;22.50;46.80;;;;;;491740;240;1222;-53
2022/10/14 04:17:29;;;;;;;;;;;22.50;46.80;;;;;;491650;240;1174;-52
2022/10/14 04:19:30;;;;;;;;;;;22.50;46.80;;;;;;491634;240;2175;-52
2022/10/14 04:21:31;;;;;;;;;;;22.50;46.80;;;;;;491661;240;1191;-53
2022/10/14 04:23:33;;;;;;;;;;;22.50;46.80;;;;;;491860;240;1196;-52
2022/10/14 04:25:34;;;;;;;;;;;22.50;46.80;;;;;;491670;240;1245;-53
2022/10/14 04:27:35;;;;;;;;;;;22.50;46.80;;;;;;491768;240;1227;-53
2022/10/14 04:29:37;;;;;;;;;;;22.40;46.80;;;;;;492003;240;1185;-53
2022/10/14 04:31:38;;;;;;;;;;;22.40;46.80;;;;;;492142;240;1169;-53
2022/10/14 04:33:39;;;;;;;;;;;22.40;46.80;;;;;;491824;240;1223;-53
2022/10/14 04:35:41;;;;;;;;;;;22.50;46.80;;;;;;492106;240;1231;-53
2022/10/14 04:37:42;;;;;;;;;;;22.50;46.80;;;;;;491495;240;1162;-53
2022/10/14 04:39:43;;;;;;;;;;;22.50;46.80;;;;;;491843;240;2148;-53
2022/10/14 04:41:45;;;;;;;;;;;22.50;46.80;;;;;;492123;240;1196;-53
2022/10/14 04:43:46;;;;;;;;;;;22.50;46.80;;;;;;492139;240;1277;-53
2022/10/14 04:45:47;;;;;;;;;;;22.50;46.80;;;;;;491751;240;1210;-53
2022/10/14 04:47:48;;;;;;;;;;;22.40;46.80;;;;;;491819;240;1217;-53
2022/10/14 04:49:50;;;;;;;;;;;22.50;46.80;;;;;;491673;240;1179;-53
2022/10/14 04:51:51;;;;;;;;;;;22.50;46.80;;;;;;492077;240;1203;-53
2022/10/14 04:53:53;;;;;;;;;;;22.50;46.90;;;;;;491585;240;1320;-53
2022/10/14 04:55:54;;;;;;;;;;;22.40;46.80;;;;;;491584;240;1267;-53
2022/10/14 04:57:55;;;;;;;;;;;22.50;46.80;;;;;;492135;240;1538;-53
2022/10/14 04:59:56;;;;;;;;;;;22.40;46.80;;;;;;492011;240;2192;-52
2022/10/14 05:01:58;;;;;;;;;;;22.40;46.80;;;;;;491604;240;1773;-53
2022/10/14 05:03:59;;;;;;;;;;;22.40;46.80;;;;;;491673;240;1344;-53
2022/10/14 05:06:00;;;;;;;;;;;22.50;46.90;;;;;;491952;240;2386;-53
2022/10/14 05:08:02;;;;;;;;;;;22.40;46.90;;;;;;491653;240;1288;-52
2022/10/14 05:10:03;;;;;;;;;;;22.50;46.90;;;;;;491685;240;1240;-53
2022/10/14 05:12:05;;;;;;;;;;;22.50;46.90;;;;;;491738;240;1356;-53
2022/10/14 05:14:06;;;;;;;;;;;22.50;46.90;;;;;;491630;240;1465;-53
2022/10/14 05:16:07;;;;;;;;;;;22.50;46.90;;;;;;491504;240;1213;-53
2022/10/14 05:18:09;;;;;;;;;;;22.50;46.90;;;;;;491738;240;1110;-52
2022/10/14 05:20:10;;;;;;;;;;;22.50;46.90;;;;;;491801;240;2200;-52
2022/10/14 05:22:11;;;;;;;;;;;22.50;47.00;;;;;;491786;240;1273;-53
2022/10/14 05:24:13;;;;;;;;;;;22.40;47.00;;;;;;491768;240;1339;-53
2022/10/14 05:26:14;;;;;;;;;;;22.50;46.90;;;;;;491817;240;1220;-52
2022/10/14 05:28:15;;;;;;;;;;;22.50;47.00;;;;;;491578;240;1164;-53
2022/10/14 05:30:17;;;;;;;;;;;22.40;47.00;;;;;;491717;240;1196;-53
2022/10/14 05:32:18;;;;;;;;;;;22.50;47.00;;;;;;491929;240;1240;-53
2022/10/14 05:34:19;;;;;;;;;;;22.50;47.00;;;;;;491553;240;1270;-53
2022/10/14 05:36:21;;;;;;;;;;;22.50;47.00;;;;;;491797;240;1291;-53
2022/10/14 05:38:22;;;;;;;;;;;22.50;47.00;;;;;;491585;240;1277;-53
2022/10/14 05:40:23;;;;;;;;;;;22.40;47.00;;;;;;491601;240;2165;-53
2022/10/14 05:42:25;;;;;;;;;;;22.40;47.00;;;;;;491531;240;1299;-53
2022/10/14 05:44:26;;;;;;;;;;;22.40;47.00;;;;;;491638;240;1247;-53
2022/10/14 05:46:27;;;;;;;;;;;22.50;47.00;;;;;;491673;240;1235;-53
2022/10/14 05:48:29;;;;;;;;;;;22.50;46.90;;;;;;491804;240;1264;-53
2022/10/14 05:50:30;;;;;;;;;;;22.40;46.80;;;;;;491557;240;1638;-53
2022/10/14 05:52:31;;;;;;;;;;;22.50;46.80;;;;;;491460;240;1509;-54
2022/10/14 05:54:32;;;;;;;;;;;22.60;46.60;;;;;;491921;240;1174;-54
2022/10/14 05:56:34;;;;;;;;;;;22.50;46.40;;;;;;491370;240;1612;-53
2022/10/14 05:58:35;;;;;;;;;;;22.60;46.40;;;;;;491617;240;1206;-53
2022/10/14 06:00:36;;;;;;;;;;;22.60;46.20;;;;;;491184;240;2220;-53
2022/10/14 06:02:38;;;;;;;;;;;22.60;46.10;;;;;;491398;240;1207;-53
2022/10/14 06:04:41;;;;;;;;;;;22.60;46.00;;;;;;491612;240;1182;-53
2022/10/14 06:06:42;;;;;;;;;;;22.60;46.00;;;;;;491539;240;1777;-53
2022/10/14 06:08:43;;;;;;;;;;;22.60;45.90;;;;;;491524;240;1121;-54
2022/10/14 06:10:44;;;;;;;;;;;22.70;45.80;;;;;;491445;240;1213;-53
2022/10/14 06:12:46;;;;;;;;;;;22.70;45.70;;;;;;491775;240;1379;-53
2022/10/14 06:14:47;;;;;;;;;;;22.70;45.60;;;;;;491862;240;1187;-53
2022/10/14 06:16:48;;;;;;;;;;;22.70;45.60;;;;;;491466;240;1196;-53
2022/10/14 06:18:50;;;;;;;;;;;22.70;45.40;;;;;;491858;240;1278;-53
2022/10/14 06:20:51;;;;;;;;;;;22.70;45.40;;;;;;491307;240;2191;-53
2022/10/14 06:22:52;;;;;;;;;;;22.70;45.40;;;;;;491429;240;1208;-54
2022/10/14 06:24:54;;;;;;;;;;;22.70;45.30;;;;;;491602;240;1440;-53
2022/10/14 06:26:55;;;;;;;;;;;22.80;45.30;;;;;;491601;240;1201;-53
2022/10/14 06:28:57;;;;;;;;;;;22.70;45.20;;;;;;491800;240;1160;-54
2022/10/14 06:30:58;;;;;;;;;;;22.80;45.10;;;;;;491505;240;1273;-53
2022/10/14 06:32:59;;;;;;;;;;;22.80;45.00;;;;;;491746;240;1213;-54
2022/10/14 06:35:01;;;;;;;;;;;22.80;45.10;;;;;;491575;240;1221;-54
2022/10/14 06:37:02;;;;;;;;;;;22.80;44.90;;;;;;491614;240;1302;-53
2022/10/14 06:39:03;;;;;;;;;;;22.80;45.00;;;;;;491493;240;1272;-54
2022/10/14 06:41:05;;;;;;;;;;;22.80;44.90;;;;;;491792;240;2117;-54
2022/10/14 06:43:06;;;;;;;;;;;22.80;44.80;;;;;;491445;240;1350;-53
2022/10/14 06:45:07;;;;;;;;;;;22.90;44.90;;;;;;491158;240;1203;-54
2022/10/14 06:47:09;;;;;;;;;;;22.80;44.80;;;;;;491346;240;1277;-54
2022/10/14 06:49:10;;;;;;;;;;;22.90;44.70;;;;;;491461;240;1233;-53
2022/10/14 06:51:11;;;;;;;;;;;22.90;44.70;;;;;;491219;240;1219;-54
2022/10/14 06:53:13;;;;;;;;;;;22.90;44.60;;;;;;491579;240;1188;-53
2022/10/14 06:55:14;;;;;;;;;;;22.80;44.50;;;;;;491368;240;1207;-54
2022/10/14 06:57:15;;;;;;;;;;;22.80;44.60;;;;;;491383;240;1213;-53
2022/10/14 06:59:17;;;;;;;;;;;22.80;44.50;;;;;;491371;240;2181;-53
2022/10/14 07:01:18;;;;;;;;;;;22.90;44.60;;;;;;491602;240;1515;-53
2022/10/14 07:03:19;;;;;;;;;;;22.90;44.60;;;;;;491286;240;1383;-54
2022/10/14 07:05:21;;;;;;;;;;;22.90;44.60;;;;;;491729;240;1676;-53
2022/10/14 07:07:22;;;;;;;;;;;22.90;44.50;;;;;;491261;240;1313;-53
2022/10/14 07:09:23;;;;;;;;;;;22.80;44.50;;;;;;491205;240;1783;-53
2022/10/14 07:11:25;;;;;;;;;;;22.90;44.50;;;;;;491558;240;1225;-54
2022/10/14 07:13:26;;;;;;;;;;;22.90;44.40;;;;;;491422;240;1176;-53
2022/10/14 07:15:27;;;;;;;;;;;22.90;44.50;;;;;;491070;240;1264;-53
2022/10/14 07:17:28;;;;;;;;;;;22.90;44.40;;;;;;491190;240;1302;-54
2022/10/14 07:19:30;;;;;;;;;;;22.90;44.50;;;;;;491752;240;2184;-54
2022/10/14 07:21:31;;;;;;;;;;;22.90;44.40;;;;;;491293;240;1296;-53
2022/10/14 07:23:32;;;;;;;;;;;22.90;44.40;;;;;;491477;240;1268;-54
2022/10/14 07:25:34;;;;;;;;;;;22.90;44.40;;;;;;491506;240;1182;-53
2022/10/14 07:27:35;;;;;;;;;;;22.90;44.30;;;;;;491554;240;1143;-54
2022/10/14 07:29:36;;;;;;;;;;;22.90;44.40;;;;;;491592;240;1050;-53
2022/10/14 07:31:38;;;;;;;;;;;22.90;44.30;;;;;;491319;240;1081;-54
2022/10/14 07:33:39;;;;;;;;;;;22.90;44.30;;;;;;491333;240;1069;-53
2022/10/14 07:35:40;;;;;;;;;;;22.90;44.10;;;;;;491289;240;1711;-53
2022/10/14 07:37:42;;;;;;;;;;;22.90;44.10;;;;;;491279;240;1126;-53
2022/10/14 07:39:43;;;;;;;;;;;22.90;44.10;;;;;;491377;240;2188;-53
2022/10/14 07:41:45;;;;;;;;;;;22.90;44.00;;;;;;491625;240;1367;-53
2022/10/14 07:43:46;;;;;;;;;;;23.00;44.10;;;;;;491697;240;1150;-53
2022/10/14 07:45:49;;;;;;;;;;;22.90;44.10;;;;;;491440;240;1205;-53
2022/10/14 07:47:49;;;;;;;;;;;22.90;44.00;;;;;;491481;240;2084;-53
2022/10/14 07:49:50;;;;;;;;;;;22.90;44.20;;;;;;491420;240;1161;-54
2022/10/14 07:51:51;;;;;;;;;;;22.90;44.20;;;;;;491405;240;1073;-54
2022/10/14 07:53:53;;;;;;;;;;;22.90;44.00;;;;;;491457;240;1227;-54
2022/10/14 07:55:54;;;;;;;;;;;22.90;44.10;;;;;;491515;240;1229;-54
2022/10/14 07:57:55;;;;;;;;;;;23.00;44.10;;;;;;491444;240;1192;-53
2022/10/14 07:59:57;;;;;;;;;;;22.90;44.00;;;;;;491399;240;2212;-53
2022/10/14 08:01:58;;;;;;;;;;;22.90;43.90;;;;;;491583;240;1216;-53
2022/10/14 08:03:59;;;;;;;;;;;22.90;44.00;;;;;;491320;240;1201;-53
2022/10/14 08:06:01;;;;;;;;;;;22.90;44.10;;;;;;491300;240;1234;-53
2022/10/14 08:08:02;;;;;;;;;;;22.90;44.00;;;;;;491200;240;1163;-53
2022/10/14 08:10:04;;;;;;;;;;;22.90;44.10;;;;;;491297;240;1248;-53
2022/10/14 08:12:05;;;;;;;;;;;22.90;44.00;;;;;;491596;240;1246;-53
2022/10/14 08:14:06;;;;;;;;;;;22.90;44.00;;;;;;491240;240;1279;-54
2022/10/14 08:16:08;;;;;;;;;;;22.90;44.00;;;;;;491360;240;1370;-53
2022/10/14 08:18:09;;;;;;;;;;;22.90;43.90;;;;;;491286;240;1252;-53
2022/10/14 08:20:11;;;;;;;;;;;22.90;44.00;;;;;;491321;240;2179;-53
2022/10/14 08:22:12;;;;;;;;;;;22.90;44.00;;;;;;491330;240;1175;-53
2022/10/14 08:24:13;;;;;;;;;;;22.90;44.00;;;;;;491314;240;1179;-53
2022/10/14 08:26:15;;;;;;;;;;;23.00;43.90;;;;;;491484;240;1331;-53
2022/10/14 08:28:16;;;;;;;;;;;23.00;43.80;;;;;;491404;240;1180;-54
2022/10/14 08:30:17;;;;;;;;;;;23.00;43.90;;;;;;491394;240;1222;-53
2022/10/14 08:32:18;;;;;;;;;;;23.00;43.80;;;;;;491306;240;1319;-53
2022/10/14 08:34:20;;;;;;;;;;;23.00;43.90;;;;;;491770;240;1223;-54
2022/10/14 08:36:21;;;;;;;;;;;23.00;43.90;;;;;;491361;240;1226;-53
2022/10/14 08:38:25;;;;;;;;;;;23.00;43.80;;;;;;491873;240;1071;-53
2022/10/14 08:40:24;;;;;;;;;;;23.00;43.80;;;;;;491430;240;2409;-53
2022/10/14 08:42:28;;;;;;;;;;;23.00;43.70;;;;;;491471;240;1589;-53
2022/10/14 08:44:27;;;;;;;;;;;23.00;43.70;;;;;;491527;240;2015;-53
2022/10/14 08:46:29;;;;;;;;;;;23.00;43.60;;;;;;491443;240;1234;-53
2022/10/14 08:48:31;;;;;;;;;;;23.10;43.60;;;;;;491319;240;2108;-53
2022/10/14 08:50:32;;;;;;;;;;;23.00;43.70;;;;;;491447;240;1302;-54
2022/10/14 08:52:33;;;;;;;;;;;23.00;43.90;;;;;;491217;240;1209;-53
2022/10/14 08:54:35;;;;;;;;;;;23.00;44.10;;;;;;491381;240;1242;-53
2022/10/14 08:56:37;;;;;;;;;;;23.00;44.30;;;;;;491365;240;1225;-53
2022/10/14 08:58:38;;;;;;;;;;;23.00;44.30;;;;;;491279;240;1261;-53
2022/10/14 09:00:40;;;;;;;;;;;23.00;44.40;;;;;;491343;240;2188;-53
2022/10/14 09:02:41;;;;;;;;;;;23.00;44.60;;;;;;491553;240;1327;-53
2022/10/14 09:04:42;;;;;;;;;;;22.90;44.60;;;;;;491358;240;1194;-54
2022/10/14 09:06:44;;;;;;;;;;;23.00;44.70;;;;;;491318;240;1179;-53
2022/10/14 09:08:45;;;;;;;;;;;23.00;44.70;;;;;;491344;240;1257;-53
2022/10/14 09:10:46;;;;;;;;;;;23.00;44.80;;;;;;491317;240;1384;-53
2022/10/14 09:12:48;;;;;;;;;;;23.00;44.80;;;;;;491468;240;1174;-53
2022/10/14 09:14:49;;;;;;;;;;;23.00;44.80;;;;;;491480;240;1327;-53
2022/10/14 09:16:51;;;;;;;;;;;23.00;44.80;;;;;;491362;240;1206;-53
2022/10/14 09:18:52;;;;;;;;;;;23.00;44.90;;;;;;491282;240;2469;-53
2022/10/14 09:20:53;;;;;;;;;;;23.00;45.00;;;;;;491366;240;2148;-53
2022/10/14 09:22:54;;;;;;;;;;;22.90;45.00;;;;;;491392;240;1153;-53
2022/10/14 09:24:56;;;;;;;;;;;23.00;45.00;;;;;;491294;240;1419;-53
2022/10/14 09:26:57;;;;;;;;;;;23.00;45.00;;;;;;491326;240;1260;-53
2022/10/14 09:28:58;;;;;;;;;;;22.90;45.00;;;;;;491422;240;1235;-53
2022/10/14 09:31:00;;;;;;;;;;;23.00;45.20;;;;;;491432;240;1537;-53
2022/10/14 09:33:02;;;;;;;;;;;22.90;45.10;;;;;;491453;240;1234;-53
2022/10/14 09:35:02;;;;;;;;;;;22.90;45.10;;;;;;491577;240;1527;-53
2022/10/14 09:37:04;;;;;;;;;;;22.90;45.20;;;;;;491341;240;1174;-54
2022/10/14 09:39:05;;;;;;;;;;;23.00;45.20;;;;;;491719;240;1112;-53
2022/10/14 09:41:06;;;;;;;;;;;22.90;45.30;;;;;;491996;240;2206;-53
2022/10/14 09:43:08;;;;;;;;;;;23.00;45.30;;;;;;491408;240;1217;-53
2022/10/14 09:45:09;;;;;;;;;;;23.00;45.30;;;;;;491598;240;1172;-53
2022/10/14 09:47:10;;;;;;;;;;;22.90;45.20;;;;;;491504;240;1309;-53
2022/10/14 09:49:12;;;;;;;;;;;23.00;45.40;;;;;;491532;240;1316;-54
2022/10/14 09:51:13;;;;;;;;;;;22.90;45.30;;;;;;491449;240;1171;-53
2022/10/14 09:53:14;;;;;;;;;;;23.00;45.40;;;;;;491404;240;1230;-52
2022/10/14 09:55:16;;;;;;;;;;;22.90;45.30;;;;;;491383;240;1246;-53
2022/10/14 09:57:17;;;;;;;;;;;22.90;45.40;;;;;;491867;240;1201;-53
2022/10/14 09:59:18;;;;;;;;;;;23.00;45.40;;;;;;491438;240;1347;-53
2022/10/14 10:01:20;;;;;;;;;;;23.00;45.40;;;;;;491399;240;2196;-54
2022/10/14 10:03:21;;;;;;;;;;;22.90;45.40;;;;;;491433;240;1219;-54
2022/10/14 10:05:23;;;;;;;;;;;22.90;45.40;;;;;;491494;240;1256;-53
2022/10/14 10:07:25;;;;;;;;;;;23.00;45.40;;;;;;491394;240;1260;-53
2022/10/14 10:09:26;;;;;;;;;;;23.00;45.40;;;;;;491482;240;1177;-53
2022/10/14 10:11:28;;;;;;;;;;;23.00;45.40;;;;;;491442;240;1633;-54
2022/10/14 10:13:30;;;;;;;;;;;23.00;45.50;;;;;;491507;240;1273;-54
2022/10/14 10:15:30;;;;;;;;;;;23.00;45.50;;;;;;491715;240;2271;-52
2022/10/14 10:17:32;;;;;;;;;;;23.00;45.60;;;;;;491723;240;1292;-53
2022/10/14 10:19:33;;;;;;;;;;;23.00;45.60;;;;;;491577;240;1579;-53
2022/10/14 10:21:35;;;;;;;;;;;23.00;45.60;;;;;;491435;240;2152;-54
2022/10/14 10:23:36;;;;;;;;;;;23.00;45.50;;;;;;491600;240;1204;-53
2022/10/14 10:25:37;;;;;;;;;;;23.00;45.60;;;;;;491502;240;1270;-54
2022/10/14 10:27:39;;;;;;;;;;;23.00;45.60;;;;;;491458;240;1266;-53
2022/10/14 10:29:40;;;;;;;;;;;23.00;45.60;;;;;;491379;240;1341;-53
2022/10/14 10:31:41;;;;;;;;;;;22.90;45.60;;;;;;491530;240;1198;-53
2022/10/14 10:33:43;;;;;;;;;;;23.00;45.70;;;;;;491556;240;1213;-54
2022/10/14 10:35:44;;;;;;;;;;;23.00;45.70;;;;;;491354;240;1220;-53
2022/10/14 10:37:45;;;;;;;;;;;22.90;45.70;;;;;;491552;240;1196;-53
2022/10/14 10:39:47;;;;;;;;;;;22.90;45.70;;;;;;491434;240;1194;-53
2022/10/14 10:41:48;;;;;;;;;;;22.90;45.70;;;;;;491341;240;2185;-53
2022/10/14 10:43:49;;;;;;;;;;;23.00;45.80;;;;;;491433;240;1200;-53
2022/10/14 10:45:51;;;;;;;;;;;22.90;45.80;;;;;;491680;240;1236;-53
2022/10/14 10:47:52;;;;;;;;;;;22.90;45.80;;;;;;491597;240;1196;-53
2022/10/14 10:49:53;;;;;;;;;;;22.90;45.80;;;;;;491567;240;1199;-53
2022/10/14 10:51:55;;;;;;;;;;;22.90;45.90;;;;;;491331;240;1233;-53
2022/10/14 10:54:01;;;;;;;;;;;22.90;46.00;;;;;;491407;240;1285;-53
2022/10/14 10:55:57;;;;;;;;;;;22.90;46.00;;;;;;491563;240;1806;-54
2022/10/14 10:57:59;;;;;;;;;;;22.90;46.00;;;;;;491428;240;1168;-53
2022/10/14 11:00:00;;;;;;;;;;;22.90;46.00;;;;;;491603;240;1090;-53
2022/10/14 11:02:02;;;;;;;;;;;22.90;46.00;;;;;;491275;240;2176;-53
2022/10/14 11:04:03;;;;;;;;;;;22.90;46.00;;;;;;491581;240;1939;-53
2022/10/14 11:06:04;;;;;;;;;;;22.90;46.10;;;;;;491442;240;1623;-53
2022/10/14 11:12:44;;;;;;;;;;;22.80;46.10;;;;;;491746;242;1184;-53
2022/10/14 11:14:45;;;;;;;;;;;22.80;46.10;;;;;;491599;240;1219;-53
2022/10/14 11:16:47;;;;;;;;;;;22.80;46.10;;;;;;491602;240;1247;-53
2022/10/14 11:18:48;;;;;;;;;;;22.80;46.10;;;;;;491531;240;1174;-53
2022/10/14 11:20:49;;;;;;;;;;;22.80;46.10;;;;;;491385;240;2200;-54
2022/10/14 11:22:51;;;;;;;;;;;22.80;46.10;;;;;;491444;240;1560;-53
2022/10/14 11:24:53;;;;;;;;;;;22.80;46.20;;;;;;491588;240;2354;-53
2022/10/14 11:26:55;;;;;;;;;;;22.80;46.20;;;;;;491551;240;2745;-53
2022/10/14 11:28:54;;;;;;;;;;;22.80;46.20;;;;;;491431;240;2089;-53
2022/10/14 11:30:56;;;;;;;;;;;22.80;46.20;;;;;;491746;240;1110;-53
2022/10/14 11:32:57;;;;;;;;;;;22.90;46.20;;;;;;491502;240;1229;-53
2022/10/14 11:34:58;;;;;;;;;;;22.90;46.20;;;;;;491645;240;1223;-53
2022/10/14 11:37:00;;;;;;;;;;;22.90;46.20;;;;;;491349;240;1284;-54
2022/10/14 11:39:01;;;;;;;;;;;22.80;46.20;;;;;;491550;240;1205;-54
2022/10/14 11:41:02;;;;;;;;;;;22.80;46.20;;;;;;491445;240;2183;-53
2022/10/14 11:43:05;;;;;;;;;;;22.80;46.20;;;;;;491670;240;1204;-54
2022/10/14 11:45:05;;;;;;;;;;;22.80;46.30;;;;;;491239;240;1515;-53
2022/10/14 11:47:06;;;;;;;;;;;22.80;46.30;;;;;;491444;240;1270;-53
2022/10/14 11:49:08;;;;;;;;;;;22.80;46.30;;;;;;491704;240;1216;-53
2022/10/14 11:51:09;;;;;;;;;;;22.80;46.30;;;;;;491345;240;1251;-53
2022/10/14 11:53:12;;;;;;;;;;;22.80;46.30;;;;;;491527;240;1256;-53
2022/10/14 11:55:12;;;;;;;;;;;22.80;46.30;;;;;;491517;240;2248;-53
2022/10/14 11:57:13;;;;;;;;;;;22.80;46.30;;;;;;491443;240;1234;-53
2022/10/14 11:59:14;;;;;;;;;;;22.80;46.30;;;;;;491448;240;1564;-53
2022/10/14 12:01:16;;;;;;;;;;;22.80;46.30;;;;;;491331;240;2152;-53